sensor_id;sensor_type;location;lat;lon;timestamp;pressure;altitude;pressure_sealevel;temperature;humidity
42945;BME280;28584;42.636;23.294;2023-05-09T00:01:12;161341.41;;;10.47;100.00
42945;BME280;28584;42.636;23.294;2023-05-09T00:03:38;161333.38;;;10.44;100.00
42945;BME280;28584;42.636;23.294;2023-05-09T00:06:04;161340.03;;;10.46;100.00
42945;BME280;28584;42.636;23.294;2023-05-09T00:08:31;161336.03;;;10.45;100.00
42945;BME280;28584;42.636;23.294;2023-05-09T00:10:56;161338.69;;;10.46;100.00
42945;BME280;28584;42.636;23.294;2023-05-09T00:13:22;161358.75;;;10.53;100.00
42945;BME280;28584;42.636;23.294;2023-05-09T00:15:48;161369.41;;;10.57;100.00
42945;BME280;28584;42.636;23.294;2023-05-09T00:18:14;161364.09;;;10.55;100.00
42945;BME280;28584;42.636;23.294;2023-05-09T00:20:39;161380.09;;;10.61;100.00
42945;BME280;28584;42.636;23.294;2023-05-09T00:23:08;161361.41;;;10.54;100.00
42945;BME280;28584;42.636;23.294;2023-05-09T00:25:33;161358.75;;;10.53;100.00
42945;BME280;28584;42.636;23.294;2023-05-09T00:27:59;161348.06;;;10.49;100.00
42945;BME280;28584;42.636;23.294;2023-05-09T00:30:24;161366.75;;;10.56;100.00
42945;BME280;28584;42.636;23.294;2023-05-09T00:32:50;161380.09;;;10.61;100.00
42945;BME280;28584;42.636;23.294;2023-05-09T00:35:15;161398.81;;;10.68;100.00
42945;BME280;28584;42.636;23.294;2023-05-09T00:37:40;161414.84;;;10.74;100.00
42945;BME280;28584;42.636;23.294;2023-05-09T00:40:07;161408.19;;;10.72;100.00
42945;BME280;28584;42.636;23.294;2023-05-09T00:42:33;161428.19;;;10.79;100.00
42945;BME280;28584;42.636;23.294;2023-05-09T00:44:59;161420.22;;;10.76;100.00
42945;BME280;28584;42.636;23.294;2023-05-09T00:47:27;161438.91;;;10.83;100.00
42945;BME280;28584;42.636;23.294;2023-05-09T00:49:52;161456.28;;;10.90;100.00
42945;BME280;28584;42.636;23.294;2023-05-09T00:52:18;161448.25;;;10.87;100.00
42945;BME280;28584;42.636;23.294;2023-05-09T00:54:48;161470.97;;;10.95;100.00
42945;BME280;28584;42.636;23.294;2023-05-09T00:57:15;161453.63;;;10.89;100.00
42945;BME280;28584;42.636;23.294;2023-05-09T00:59:41;161462.94;;;10.92;100.00
42945;BME280;28584;42.636;23.294;2023-05-09T01:02:06;161458.94;;;10.91;100.00
42945;BME280;28584;42.636;23.294;2023-05-09T01:04:32;161438.91;;;10.83;100.00
42945;BME280;28584;42.636;23.294;2023-05-09T01:07:32;161436.22;;;10.82;100.00
42945;BME280;28584;42.636;23.294;2023-05-09T01:10:13;161445.59;;;10.86;100.00
42945;BME280;28584;42.636;23.294;2023-05-09T01:15:39;161438.91;;;10.83;100.00
42945;BME280;28584;42.636;23.294;2023-05-09T01:18:26;161442.94;;;10.85;100.00
42945;BME280;28584;42.636;23.294;2023-05-09T01:21:03;161406.81;;;10.71;100.00
42945;BME280;28584;42.636;23.294;2023-05-09T01:32:16;161282.59;;;10.25;100.00
42945;BME280;28584;42.636;23.294;2023-05-09T01:34:44;161250.56;;;10.13;100.00
42945;BME280;28584;42.636;23.294;2023-05-09T01:37:12;161246.56;;;10.11;100.00
42945;BME280;28584;42.636;23.294;2023-05-09T01:39:41;161231.88;;;10.06;100.00
42945;BME280;28584;42.636;23.294;2023-05-09T01:42:10;161214.41;;;9.99;100.00
42945;BME280;28584;42.636;23.294;2023-05-09T01:44:39;161214.41;;;9.99;100.00
42945;BME280;28584;42.636;23.294;2023-05-09T01:47:06;161201.09;;;9.94;100.00
42945;BME280;28584;42.636;23.294;2023-05-09T01:49:34;161219.78;;;10.01;100.00
42945;BME280;28584;42.636;23.294;2023-05-09T01:52:03;161243.91;;;10.10;100.00
42945;BME280;28584;42.636;23.294;2023-05-09T01:54:29;161233.16;;;10.06;100.00
42945;BME280;28584;42.636;23.294;2023-05-09T01:56:55;161254.56;;;10.14;100.00
42945;BME280;28584;42.636;23.294;2023-05-09T01:59:23;161257.22;;;10.15;100.00
42945;BME280;28584;42.636;23.294;2023-05-09T02:01:50;161270.56;;;10.20;100.00
42945;BME280;28584;42.636;23.294;2023-05-09T02:04:19;161267.91;;;10.19;100.00
42945;BME280;28584;42.636;23.294;2023-05-09T02:06:46;161285.28;;;10.26;100.00
42945;BME280;28584;42.636;23.294;2023-05-09T02:09:15;161286.59;;;10.26;100.00
42945;BME280;28584;42.636;23.294;2023-05-09T02:11:40;161273.25;;;10.21;100.00
42945;BME280;28584;42.636;23.294;2023-05-09T02:14:06;161283.94;;;10.25;100.00
42945;BME280;28584;42.636;23.294;2023-05-09T02:16:31;161281.28;;;10.24;100.00
42945;BME280;28584;42.636;23.294;2023-05-09T02:18:56;161274.56;;;10.22;100.00
42945;BME280;28584;42.636;23.294;2023-05-09T02:21:23;161262.59;;;10.17;100.00
42945;BME280;28584;42.636;23.294;2023-05-09T02:23:49;161259.88;;;10.16;100.00
42945;BME280;28584;42.636;23.294;2023-05-09T02:26:14;161263.88;;;10.18;100.00
42945;BME280;28584;42.636;23.294;2023-05-09T02:28:41;161267.91;;;10.19;100.00
42945;BME280;28584;42.636;23.294;2023-05-09T02:31:09;161262.59;;;10.17;100.00
42945;BME280;28584;42.636;23.294;2023-05-09T02:33:37;161233.16;;;10.06;100.00
42945;BME280;28584;42.636;23.294;2023-05-09T02:36:04;161243.91;;;10.10;100.00
42945;BME280;28584;42.636;23.294;2023-05-09T02:38:30;161234.53;;;10.07;100.00
42945;BME280;28584;42.636;23.294;2023-05-09T02:40:56;161249.19;;;10.12;100.00
42945;BME280;28584;42.636;23.294;2023-05-09T02:43:22;161246.56;;;10.11;100.00
42945;BME280;28584;42.636;23.294;2023-05-09T02:45:47;161254.56;;;10.14;100.00
42945;BME280;28584;42.636;23.294;2023-05-09T02:48:12;161246.56;;;10.11;100.00
42945;BME280;28584;42.636;23.294;2023-05-09T02:50:38;161273.25;;;10.21;100.00
42945;BME280;28584;42.636;23.294;2023-05-09T02:53:06;161267.91;;;10.19;100.00
42945;BME280;28584;42.636;23.294;2023-05-09T02:55:31;161265.25;;;10.18;100.00
42945;BME280;28584;42.636;23.294;2023-05-09T02:57:56;161261.22;;;10.17;100.00
42945;BME280;28584;42.636;23.294;2023-05-09T03:00:22;161257.22;;;10.15;100.00
42945;BME280;28584;42.636;23.294;2023-05-09T03:02:50;161262.59;;;10.17;100.00
42945;BME280;28584;42.636;23.294;2023-05-09T03:05:15;161282.59;;;10.25;100.00
42945;BME280;28584;42.636;23.294;2023-05-09T03:07:42;161281.28;;;10.24;100.00
42945;BME280;28584;42.636;23.294;2023-05-09T03:10:07;161289.25;;;10.27;100.00
42945;BME280;28584;42.636;23.294;2023-05-09T03:12:35;161298.63;;;10.31;100.00
42945;BME280;28584;42.636;23.294;2023-05-09T03:15:03;161310.66;;;10.35;100.00
42945;BME280;28584;42.636;23.294;2023-05-09T03:17:28;161314.66;;;10.37;100.00
42945;BME280;28584;42.636;23.294;2023-05-09T03:19:54;161314.66;;;10.37;100.00
42945;BME280;28584;42.636;23.294;2023-05-09T03:22:19;161330.66;;;10.43;100.00
42945;BME280;28584;42.636;23.294;2023-05-09T03:24:44;161348.06;;;10.49;100.00
42945;BME280;28584;42.636;23.294;2023-05-09T03:27:10;161356.09;;;10.52;100.00
42945;BME280;28584;42.636;23.294;2023-05-09T03:29:35;161358.75;;;10.53;100.00
42945;BME280;28584;42.636;23.294;2023-05-09T03:32:01;161376.09;;;10.60;100.00
42945;BME280;28584;42.636;23.294;2023-05-09T03:34:26;161380.09;;;10.61;100.00
42945;BME280;28584;42.636;23.294;2023-05-09T03:36:52;161381.47;;;10.62;100.00
42945;BME280;28584;42.636;23.294;2023-05-09T03:39:17;161378.78;;;10.61;100.00
42945;BME280;28584;42.636;23.294;2023-05-09T03:41:42;161377.44;;;10.60;100.00
42945;BME280;28584;42.636;23.294;2023-05-09T03:44:08;161376.09;;;10.60;100.00
42945;BME280;28584;42.636;23.294;2023-05-09T03:46:34;161374.78;;;10.59;100.00
42945;BME280;28584;42.636;23.294;2023-05-09T03:48:59;161364.09;;;10.55;100.00
42945;BME280;28584;42.636;23.294;2023-05-09T03:51:24;161353.38;;;10.51;100.00
42945;BME280;28584;42.636;23.294;2023-05-09T03:53:50;161356.09;;;10.52;100.00
42945;BME280;28584;42.636;23.294;2023-05-09T03:56:16;161352.06;;;10.51;100.00
42945;BME280;28584;42.636;23.294;2023-05-09T03:58:41;161354.72;;;10.52;100.00
42945;BME280;28584;42.636;23.294;2023-05-09T04:01:07;161342.69;;;10.47;100.00
42945;BME280;28584;42.636;23.294;2023-05-09T04:03:32;161352.06;;;10.51;100.00
42945;BME280;28584;42.636;23.294;2023-05-09T04:05:58;161364.09;;;10.55;100.00
42945;BME280;28584;42.636;23.294;2023-05-09T04:08:23;161374.78;;;10.59;100.00
42945;BME280;28584;42.636;23.294;2023-05-09T04:10:49;161380.09;;;10.61;100.00
42945;BME280;28584;42.636;23.294;2023-05-09T04:13:15;161396.16;;;10.67;100.00
42945;BME280;28584;42.636;23.294;2023-05-09T04:15:41;161417.50;;;10.75;100.00
42945;BME280;28584;42.636;23.294;2023-05-09T04:18:07;161472.31;;;10.96;100.00
42945;BME280;28584;42.636;23.294;2023-05-09T04:20:32;161477.63;;;10.98;100.00
42945;BME280;28584;42.636;23.294;2023-05-09T04:22:58;161468.31;;;10.94;100.00
42945;BME280;28584;42.636;23.294;2023-05-09T04:25:23;161457.63;;;10.90;100.00
42945;BME280;28584;42.636;23.294;2023-05-09T04:27:48;161457.63;;;10.90;100.00
42945;BME280;28584;42.636;23.294;2023-05-09T04:30:14;161468.31;;;10.94;100.00
42945;BME280;28584;42.636;23.294;2023-05-09T04:32:40;161489.69;;;11.02;100.00
42945;BME280;28584;42.636;23.294;2023-05-09T04:35:10;161531.09;;;11.18;100.00
42945;BME280;28584;42.636;23.294;2023-05-09T04:37:35;161560.50;;;11.29;100.00
42945;BME280;28584;42.636;23.294;2023-05-09T04:40:01;161593.91;;;11.42;100.00
42945;BME280;28584;42.636;23.294;2023-05-09T04:42:27;161644.75;;;11.61;100.00
42945;BME280;28584;42.636;23.294;2023-05-09T04:44:52;161690.28;;;11.78;100.00
42945;BME280;28584;42.636;23.294;2023-05-09T04:47:17;161700.94;;;11.82;100.00
42945;BME280;28584;42.636;23.294;2023-05-09T04:49:43;161719.66;;;11.89;100.00
42945;BME280;28584;42.636;23.294;2023-05-09T04:52:08;161730.38;;;11.93;100.00
42945;BME280;28584;42.636;23.294;2023-05-09T04:54:34;161742.41;;;11.97;100.00
42945;BME280;28584;42.636;23.294;2023-05-09T04:56:59;161774.50;;;12.09;100.00
42945;BME280;28584;42.636;23.294;2023-05-09T04:59:25;161775.84;;;12.10;100.00
42945;BME280;28584;42.636;23.294;2023-05-09T05:01:50;161807.97;;;12.22;100.00
42945;BME280;28584;42.636;23.294;2023-05-09T05:04:15;161894.88;;;12.54;100.00
42945;BME280;28584;42.636;23.294;2023-05-09T05:06:41;161905.63;;;12.58;100.00
42945;BME280;28584;42.636;23.294;2023-05-09T05:09:06;161901.63;;;12.57;100.00
42945;BME280;28584;42.636;23.294;2023-05-09T05:11:31;161914.97;;;12.62;100.00
42945;BME280;28584;42.636;23.294;2023-05-09T05:13:57;161948.41;;;12.74;100.00
42945;BME280;28584;42.636;23.294;2023-05-09T05:16:22;162005.97;;;12.96;100.00
42945;BME280;28584;42.636;23.294;2023-05-09T05:18:47;162014.06;;;12.99;100.00
42945;BME280;28584;42.636;23.294;2023-05-09T05:21:13;162097.06;;;13.30;100.00
42945;BME280;28584;42.636;23.294;2023-05-09T05:23:40;162295.22;;;14.04;100.00
42945;BME280;28584;42.636;23.294;2023-05-09T05:26:05;162304.63;;;14.08;100.00
42945;BME280;28584;42.636;23.294;2023-05-09T05:28:31;162292.56;;;14.03;100.00
42945;BME280;28584;42.636;23.294;2023-05-09T05:30:56;162273.81;;;13.96;100.00
42945;BME280;28584;42.636;23.294;2023-05-09T05:33:21;162206.88;;;13.71;100.00
42945;BME280;28584;42.636;23.294;2023-05-09T05:35:47;162158.63;;;13.53;100.00
42945;BME280;28584;42.636;23.294;2023-05-09T05:38:12;162138.56;;;13.45;100.00
42945;BME280;28584;42.636;23.294;2023-05-09T05:40:38;162101.06;;;13.31;100.00
42945;BME280;28584;42.636;23.294;2023-05-09T05:43:03;162071.59;;;13.20;100.00
42945;BME280;28584;42.636;23.294;2023-05-09T05:45:28;162087.66;;;13.26;100.00
42945;BME280;28584;42.636;23.294;2023-05-09T05:47:55;162070.28;;;13.20;100.00
42945;BME280;28584;42.636;23.294;2023-05-09T05:50:23;162011.31;;;12.98;100.00
42945;BME280;28584;42.636;23.294;2023-05-09T05:52:49;162011.31;;;12.98;100.00
42945;BME280;28584;42.636;23.294;2023-05-09T05:55:14;162016.72;;;13.00;100.00
42945;BME280;28584;42.636;23.294;2023-05-09T05:57:40;162074.31;;;13.21;100.00
42945;BME280;28584;42.636;23.294;2023-05-09T06:00:06;162102.38;;;13.32;100.00
42945;BME280;28584;42.636;23.294;2023-05-09T06:02:34;162102.38;;;13.32;100.00
42945;BME280;28584;42.636;23.294;2023-05-09T06:05:00;162126.50;;;13.41;100.00
42945;BME280;28584;42.636;23.294;2023-05-09T06:07:26;162145.25;;;13.48;100.00
42945;BME280;28584;42.636;23.294;2023-05-09T06:09:51;162091.69;;;13.28;100.00
42945;BME280;28584;42.636;23.294;2023-05-09T06:12:17;162019.38;;;13.01;100.00
42945;BME280;28584;42.636;23.294;2023-05-09T06:14:42;161991.25;;;12.90;100.00
42945;BME280;28584;42.636;23.294;2023-05-09T06:17:07;161987.25;;;12.89;100.00
42945;BME280;28584;42.636;23.294;2023-05-09T06:19:33;161975.19;;;12.84;100.00
42945;BME280;28584;42.636;23.294;2023-05-09T06:21:58;161948.41;;;12.74;100.00
42945;BME280;28584;42.636;23.294;2023-05-09T06:24:24;161900.25;;;12.56;100.00
42945;BME280;28584;42.636;23.294;2023-05-09T06:26:49;161919.00;;;12.63;100.00
42945;BME280;28584;42.636;23.294;2023-05-09T06:29:15;161999.28;;;12.93;100.00
42945;BME280;28584;42.636;23.294;2023-05-09T06:31:40;162024.75;;;13.03;100.00
42945;BME280;28584;42.636;23.294;2023-05-09T06:34:06;162082.34;;;13.24;100.00
42945;BME280;28584;42.636;23.294;2023-05-09T06:36:33;162122.47;;;13.39;100.00
42945;BME280;28584;42.636;23.294;2023-05-09T06:38:58;162127.84;;;13.41;100.00
42945;BME280;28584;42.636;23.294;2023-05-09T06:41:24;162075.59;;;13.22;100.00
42945;BME280;28584;42.636;23.294;2023-05-09T06:43:50;162036.81;;;13.07;100.00
42945;BME280;28584;42.636;23.294;2023-05-09T06:46:16;162097.06;;;13.30;100.00
42945;BME280;28584;42.636;23.294;2023-05-09T06:48:41;162164.00;;;13.55;100.00
42945;BME280;28584;42.636;23.294;2023-05-09T06:51:07;162196.09;;;13.67;100.00
42945;BME280;28584;42.636;23.294;2023-05-09T06:53:32;162206.88;;;13.71;100.00
42945;BME280;28584;42.636;23.294;2023-05-09T06:55:57;162205.50;;;13.70;100.00
42945;BME280;28584;42.636;23.294;2023-05-09T06:58:23;162164.00;;;13.55;100.00
42945;BME280;28584;42.636;23.294;2023-05-09T07:00:49;162220.22;;;13.76;100.00
42945;BME280;28584;42.636;23.294;2023-05-09T07:03:15;162177.34;;;13.60;100.00
42945;BME280;28584;42.636;23.294;2023-05-09T07:05:40;162107.75;;;13.34;100.00
42945;BME280;28584;42.636;23.294;2023-05-09T07:08:06;162131.81;;;13.43;100.00
42945;BME280;28584;42.636;23.294;2023-05-09T07:10:31;162103.75;;;13.32;100.00
42945;BME280;28584;42.636;23.294;2023-05-09T07:12:57;162054.19;;;13.14;100.00
42945;BME280;28584;42.636;23.294;2023-05-09T07:15:22;162054.19;;;13.14;100.00
42945;BME280;28584;42.636;23.294;2023-05-09T07:17:48;162052.84;;;13.13;100.00
42945;BME280;28584;42.636;23.294;2023-05-09T07:20:13;162040.84;;;13.09;100.00
42945;BME280;28584;42.636;23.294;2023-05-09T07:22:39;162039.47;;;13.08;100.00
42945;BME280;28584;42.636;23.294;2023-05-09T07:25:06;162016.72;;;13.00;100.00
42945;BME280;28584;42.636;23.294;2023-05-09T07:27:32;161947.09;;;12.74;100.00
42945;BME280;28584;42.636;23.294;2023-05-09T07:29:57;161888.19;;;12.52;100.00
42945;BME280;28584;42.636;23.294;2023-05-09T07:32:23;161888.19;;;12.52;100.00
42945;BME280;28584;42.636;23.294;2023-05-09T07:34:48;161921.66;;;12.64;100.00
42945;BME280;28584;42.636;23.294;2023-05-09T07:37:14;161963.13;;;12.80;100.00
42945;BME280;28584;42.636;23.294;2023-05-09T07:39:39;161977.84;;;12.85;100.00
42945;BME280;28584;42.636;23.294;2023-05-09T07:42:05;161992.56;;;12.91;100.00
42945;BME280;28584;42.636;23.294;2023-05-09T07:44:30;162032.81;;;13.06;100.00
42945;BME280;28584;42.636;23.294;2023-05-09T07:46:56;162072.94;;;13.21;100.00
42945;BME280;28584;42.636;23.294;2023-05-09T07:49:24;162122.47;;;13.39;100.00
42945;BME280;28584;42.636;23.294;2023-05-09T07:51:50;162169.38;;;13.57;100.00
42945;BME280;28584;42.636;23.294;2023-05-09T07:54:15;162204.16;;;13.70;100.00
42945;BME280;28584;42.636;23.294;2023-05-09T07:56:41;162301.91;;;14.07;100.00
42945;BME280;28584;42.636;23.294;2023-05-09T07:59:07;162351.53;;;14.25;100.00
42945;BME280;28584;42.636;23.294;2023-05-09T08:01:32;162410.53;;;14.47;100.00
42945;BME280;28584;42.636;23.294;2023-05-09T08:03:58;162496.28;;;14.79;100.00
42945;BME280;28584;42.636;23.294;2023-05-09T08:06:24;162580.69;;;15.11;100.00
42945;BME280;28584;42.636;23.294;2023-05-09T08:08:50;162628.97;;;15.29;100.00
42945;BME280;28584;42.636;23.294;2023-05-09T08:11:16;162677.28;;;15.47;100.00
42945;BME280;28584;42.636;23.294;2023-05-09T08:13:41;162718.88;;;15.62;100.00
42945;BME280;28584;42.636;23.294;2023-05-09T08:16:07;162791.28;;;15.89;100.00
42945;BME280;28584;42.636;23.294;2023-05-09T08:18:32;162775.19;;;15.83;100.00
42945;BME280;28584;42.636;23.294;2023-05-09T08:20:57;162838.22;;;16.07;97.43
42945;BME280;28584;42.636;23.294;2023-05-09T08:23:24;162957.72;;;16.52;95.18
42945;BME280;28584;42.636;23.294;2023-05-09T08:25:53;163117.38;;;17.11;84.28
42945;BME280;28584;42.636;23.294;2023-05-09T08:28:19;163196.59;;;17.41;72.34
42945;BME280;28584;42.636;23.294;2023-05-09T08:30:46;163006.00;;;16.70;77.72
42945;BME280;28584;42.636;23.294;2023-05-09T08:33:11;162753.75;;;15.75;89.19
42945;BME280;28584;42.636;23.294;2023-05-09T08:35:37;162701.41;;;15.56;100.00
42945;BME280;28584;42.636;23.294;2023-05-09T08:38:02;162646.41;;;15.35;100.00
42945;BME280;28584;42.636;23.294;2023-05-09T08:40:28;162869.06;;;16.18;100.00
42945;BME280;28584;42.636;23.294;2023-05-09T08:42:53;162854.31;;;16.13;91.99
42945;BME280;28584;42.636;23.294;2023-05-09T08:45:24;162803.31;;;15.94;98.92
42945;BME280;28584;42.636;23.294;2023-05-09T08:47:52;162795.31;;;15.91;100.00
42945;BME280;28584;42.636;23.294;2023-05-09T08:50:18;162785.91;;;15.87;100.00
42945;BME280;28584;42.636;23.294;2023-05-09T08:52:44;162674.63;;;15.46;100.00
42945;BME280;28584;42.636;23.294;2023-05-09T08:55:10;162622.25;;;15.26;100.00
42945;BME280;28584;42.636;23.294;2023-05-09T08:57:36;162509.66;;;14.84;100.00
42945;BME280;28584;42.636;23.294;2023-05-09T09:00:03;162456.03;;;14.64;100.00
42945;BME280;28584;42.636;23.294;2023-05-09T09:02:35;162539.13;;;14.95;100.00
42945;BME280;28584;42.636;23.294;2023-05-09T09:05:01;162571.31;;;15.07;100.00
42945;BME280;28584;42.636;23.294;2023-05-09T09:07:27;162602.16;;;15.19;100.00
42945;BME280;28584;42.636;23.294;2023-05-09T09:09:54;162591.44;;;15.15;100.00
42945;BME280;28584;42.636;23.294;2023-05-09T09:12:23;162527.09;;;14.91;100.00
42945;BME280;28584;42.636;23.294;2023-05-09T09:14:53;162421.22;;;14.51;100.00
42945;BME280;28584;42.636;23.294;2023-05-09T09:17:25;162273.81;;;13.96;100.00
42945;BME280;28584;42.636;23.294;2023-05-09T09:19:55;162206.88;;;13.71;100.00
42945;BME280;28584;42.636;23.294;2023-05-09T09:22:22;162117.09;;;13.37;100.00
42945;BME280;28584;42.636;23.294;2023-05-09T09:24:49;162035.47;;;13.07;100.00
42945;BME280;28584;42.636;23.294;2023-05-09T09:27:15;161919.00;;;12.63;100.00
42945;BME280;28584;42.636;23.294;2023-05-09T09:29:40;161882.88;;;12.50;100.00
42945;BME280;28584;42.636;23.294;2023-05-09T09:32:07;161876.16;;;12.47;100.00
42945;BME280;28584;42.636;23.294;2023-05-09T09:34:32;161927.03;;;12.66;100.00
42945;BME280;28584;42.636;23.294;2023-05-09T09:36:58;161952.44;;;12.76;100.00
42945;BME280;28584;42.636;23.294;2023-05-09T09:39:23;161992.56;;;12.91;100.00
42945;BME280;28584;42.636;23.294;2023-05-09T09:41:49;161991.25;;;12.90;100.00
42945;BME280;28584;42.636;23.294;2023-05-09T09:44:16;161944.41;;;12.73;100.00
42945;BME280;28584;42.636;23.294;2023-05-09T09:46:50;161989.91;;;12.90;100.00
42945;BME280;28584;42.636;23.294;2023-05-09T09:49:23;162018.09;;;13.00;100.00
42945;BME280;28584;42.636;23.294;2023-05-09T09:51:58;162040.84;;;13.09;100.00
42945;BME280;28584;42.636;23.294;2023-05-09T09:54:27;162016.72;;;13.00;100.00
42945;BME280;28584;42.636;23.294;2023-05-09T09:56:52;162001.97;;;12.94;100.00
42945;BME280;28584;42.636;23.294;2023-05-09T09:59:27;162043.50;;;13.10;100.00
42945;BME280;28584;42.636;23.294;2023-05-09T10:02:01;161992.56;;;12.91;100.00
42945;BME280;28584;42.636;23.294;2023-05-09T10:04:29;162020.75;;;13.01;100.00
42945;BME280;28584;42.636;23.294;2023-05-09T10:07:03;162082.34;;;13.24;100.00
42945;BME280;28584;42.636;23.294;2023-05-09T10:09:30;162067.63;;;13.19;100.00
42945;BME280;28584;42.636;23.294;2023-05-09T10:12:01;162056.88;;;13.15;100.00
42945;BME280;28584;42.636;23.294;2023-05-09T10:14:26;162059.59;;;13.16;100.00
42945;BME280;28584;42.636;23.294;2023-05-09T10:16:56;162086.34;;;13.26;100.00
42945;BME280;28584;42.636;23.294;2023-05-09T10:19:22;162170.69;;;13.57;100.00
42945;BME280;28584;42.636;23.294;2023-05-09T10:21:54;162192.09;;;13.65;100.00
42945;BME280;28584;42.636;23.294;2023-05-09T10:24:26;162249.69;;;13.87;100.00
42945;BME280;28584;42.636;23.294;2023-05-09T10:26:56;162260.38;;;13.91;100.00
42945;BME280;28584;42.636;23.294;2023-05-09T10:29:26;162283.16;;;14.00;100.00
42945;BME280;28584;42.636;23.294;2023-05-09T10:31:58;162249.69;;;13.87;100.00
42945;BME280;28584;42.636;23.294;2023-05-09T10:34:24;162196.09;;;13.67;100.00
42945;BME280;28584;42.636;23.294;2023-05-09T10:36:50;162165.34;;;13.55;100.00
42945;BME280;28584;42.636;23.294;2023-05-09T10:39:16;162176.06;;;13.59;100.00
42945;BME280;28584;42.636;23.294;2023-05-09T10:41:42;162243.00;;;13.84;100.00
42945;BME280;28584;42.636;23.294;2023-05-09T10:44:08;162272.44;;;13.96;100.00
42945;BME280;28584;42.636;23.294;2023-05-09T10:46:34;162237.63;;;13.82;100.00
42945;BME280;28584;42.636;23.294;2023-05-09T10:49:00;162263.09;;;13.92;100.00
42945;BME280;28584;42.636;23.294;2023-05-09T10:51:26;162304.63;;;14.08;100.00
42945;BME280;28584;42.636;23.294;2023-05-09T10:53:53;162383.72;;;14.37;100.00
42945;BME280;28584;42.636;23.294;2023-05-09T10:56:24;162454.72;;;14.64;100.00
42945;BME280;28584;42.636;23.294;2023-05-09T10:58:51;162545.88;;;14.98;100.00
42945;BME280;28584;42.636;23.294;2023-05-09T11:01:34;162574.00;;;15.08;100.00
42945;BME280;28584;42.636;23.294;2023-05-09T11:04:11;162557.91;;;15.02;100.00
42945;BME280;28584;42.636;23.294;2023-05-09T11:12:12;162568.66;;;15.06;100.00
42945;BME280;28584;42.636;23.294;2023-05-09T11:17:14;162595.41;;;15.16;100.00
42945;BME280;28584;42.636;23.294;2023-05-09T11:24:50;162430.59;;;14.55;100.00
42945;BME280;28584;42.636;23.294;2023-05-09T11:29:52;162544.50;;;14.97;100.00
42945;BME280;28584;42.636;23.294;2023-05-09T11:32:19;162732.25;;;15.67;100.00
42945;BME280;28584;42.636;23.294;2023-05-09T11:34:45;162831.53;;;16.04;100.00
42945;BME280;28584;42.636;23.294;2023-05-09T11:37:12;162796.63;;;15.91;100.00
42945;BME280;28584;42.636;23.294;2023-05-09T11:39:55;162832.88;;;16.05;100.00
42945;BME280;28584;42.636;23.294;2023-05-09T11:42:24;162665.22;;;15.42;100.00
42945;BME280;28584;42.636;23.294;2023-05-09T11:44:50;162515.03;;;14.86;100.00
42945;BME280;28584;42.636;23.294;2023-05-09T11:47:15;162446.69;;;14.61;100.00
42945;BME280;28584;42.636;23.294;2023-05-09T11:49:44;162427.91;;;14.54;100.00
42945;BME280;28584;42.636;23.294;2023-05-09T11:52:10;162393.06;;;14.41;100.00
42945;BME280;28584;42.636;23.294;2023-05-09T11:54:39;162386.38;;;14.38;100.00
42945;BME280;28584;42.636;23.294;2023-05-09T11:57:05;162413.19;;;14.48;100.00
42945;BME280;28584;42.636;23.294;2023-05-09T11:59:32;162418.50;;;14.50;100.00
42945;BME280;28584;42.636;23.294;2023-05-09T12:02:05;162335.41;;;14.19;100.00
42945;BME280;28584;42.636;23.294;2023-05-09T12:04:31;162180.06;;;13.61;100.00
42945;BME280;28584;42.636;23.294;2023-05-09T12:06:57;162078.31;;;13.23;100.00
42945;BME280;28584;42.636;23.294;2023-05-09T12:09:24;162094.34;;;13.29;100.00
42945;BME280;28584;42.636;23.294;2023-05-09T12:11:51;161981.88;;;12.87;100.00
42945;BME280;28584;42.636;23.294;2023-05-09T12:14:27;161941.72;;;12.72;100.00
42945;BME280;28584;42.636;23.294;2023-05-09T12:16:53;161885.53;;;12.51;100.00
42945;BME280;28584;42.636;23.294;2023-05-09T12:19:18;161956.44;;;12.77;100.00
42945;BME280;28584;42.636;23.294;2023-05-09T12:21:43;161923.00;;;12.65;100.00
42945;BME280;28584;42.636;23.294;2023-05-09T12:24:09;161936.38;;;12.70;100.00
42945;BME280;28584;42.636;23.294;2023-05-09T12:26:34;161888.19;;;12.52;100.00
42945;BME280;28584;42.636;23.294;2023-05-09T12:29:00;161837.38;;;12.33;100.00
42945;BME280;28584;42.636;23.294;2023-05-09T12:31:26;161797.22;;;12.18;100.00
42945;BME280;28584;42.636;23.294;2023-05-09T12:33:51;161765.16;;;12.06;100.00
42945;BME280;28584;42.636;23.294;2023-05-09T12:36:17;161755.75;;;12.02;100.00
42945;BME280;28584;42.636;23.294;2023-05-09T12:38:55;161731.72;;;11.93;100.00
42945;BME280;28584;42.636;23.294;2023-05-09T12:41:21;161671.53;;;11.71;100.00
42945;BME280;28584;42.636;23.294;2023-05-09T12:43:48;161644.75;;;11.61;100.00
42945;BME280;28584;42.636;23.294;2023-05-09T12:46:19;161573.91;;;11.34;100.00
42945;BME280;28584;42.636;23.294;2023-05-09T12:48:44;161567.19;;;11.32;100.00
42945;BME280;28584;42.636;23.294;2023-05-09T12:51:10;161537.78;;;11.20;100.00
42945;BME280;28584;42.636;23.294;2023-05-09T12:53:40;161524.44;;;11.15;100.00
42945;BME280;28584;42.636;23.294;2023-05-09T12:56:11;161481.66;;;10.99;100.00